Tiziano — INYX — position and weather

sailwx.info

Track history (hours):
 
Tides and Currents Weather Stations Pressure Air Temp Water Temp Dewpoint Dewpoint Depression Visibility Wind Speed Wind Dir Waves Ship Positions

Tiziano

Last reported at 2017-Dec-18 08:21 UTC. Time now 2017-Dec-18 12:49 UTC.
Position N 38°35' E 013°14'.

Length 31 m; draft 3.8 m.

Type: Passenger vessel. MMSI: 247192500.

Date/timePositionNaut miles runAvg speedWind from/ knotsBaromVisibWave heightAir tempDewpointWater temp
2017-Dec-18 08:21N 38°35' E 013°14'1130.8
2017-Dec-18 08:01N 38°25' E 013°17'1530.7
2017-Dec-18 07:31N 38°11' E 013°25'4 8.0
2017-Dec-18 07:00N 38°08' E 013°22'0 0.0
2017-Dec-18 06:30N 38°08' E 013°22'0 0.0
2017-Dec-17 13:32N 38°08' E 013°22'0 0.2
2017-Dec-17 13:30N 38°08' E 013°22'0 0.0
2017-Dec-17 13:00N 38°08' E 013°22'0 0.0
2017-Dec-17 12:30N 38°08' E 013°22'0 0.0
2017-Dec-17 12:00N 38°08' E 013°22'0 0.0
2017-Dec-17 11:30N 38°08' E 013°22'0 0.0
2017-Dec-17 11:00N 38°08' E 013°22'0 0.0
2017-Dec-17 10:30N 38°08' E 013°22'0 0.0
2017-Dec-17 10:00N 38°08' E 013°22'0 0.0
2017-Dec-17 09:30N 38°08' E 013°22'0 0.0
2017-Dec-17 09:00N 38°08' E 013°22'0 0.0
2017-Dec-17 08:30N 38°08' E 013°22'0 0.0
2017-Dec-17 08:00N 38°08' E 013°22'0 0.0
2017-Dec-17 07:30N 38°08' E 013°22'0 0.0
2017-Dec-17 07:00N 38°08' E 013°22'0 0.0
2017-Dec-17 06:30N 38°08' E 013°22'0 0.0
2017-Dec-16 15:52N 38°08' E 013°22'0 1.1
2017-Dec-16 15:30N 38°07' E 013°22'0 0.8
2017-Dec-16 15:00N 38°08' E 013°22'713.8
2017-Dec-16 14:30N 38°14' E 013°23'1223.6
2017-Dec-16 14:01N 38°26' E 013°22'10 1.8
2017-Dec-16 08:11N 38°35' E 013°16'632.1
2017-Dec-16 08:01N 38°30' E 013°18'1631.9
2017-Dec-16 07:31N 38°14' E 013°24'713.7
2017-Dec-16 07:01N 38°08' E 013°22'0 0.0
2017-Dec-16 06:30N 38°08' E 013°22'0 0.0
2017-Dec-15 14:13N 38°08' E 013°22'0 0.0
2017-Dec-15 14:00N 38°08' E 013°22'0 0.0
2017-Dec-15 13:30N 38°08' E 013°22'0 0.0
2017-Dec-15 13:00N 38°08' E 013°22'0 0.0
2017-Dec-15 12:30N 38°08' E 013°22'0 0.0
2017-Dec-15 12:00N 38°08' E 013°22'0 0.0
2017-Dec-15 11:30N 38°08' E 013°22'0 0.0
2017-Dec-15 11:00N 38°08' E 013°22'0 0.0
2017-Dec-15 10:30N 38°08' E 013°22'0 0.0
2017-Dec-15 10:00N 38°08' E 013°22'0 0.0
2017-Dec-15 09:30N 38°08' E 013°22'0 0.0
2017-Dec-15 09:00N 38°08' E 013°22'0 0.0
2017-Dec-15 08:30N 38°08' E 013°22'0 0.0
2017-Dec-15 08:00N 38°08' E 013°22'0 0.0
2017-Dec-15 07:30N 38°08' E 013°22'0 0.0
2017-Dec-15 07:00N 38°08' E 013°22'0 0.0
2017-Dec-15 06:30N 38°08' E 013°22'0 0.0
2017-Dec-15 06:00N 38°08' E 013°22'0 0.0
2017-Dec-14 15:53N 38°08' E 013°22'0 0.0
2017-Dec-14 15:00N 38°08' E 013°22'0 0.0
2017-Dec-14 14:30N 38°08' E 013°22'0 0.0
2017-Dec-14 14:00N 38°08' E 013°22'0 0.0
2017-Dec-14 13:30N 38°08' E 013°22'0 0.0
2017-Dec-14 13:00N 38°08' E 013°22'0 0.0
2017-Dec-14 12:30N 38°08' E 013°22'0 0.0
2017-Dec-14 12:00N 38°08' E 013°22'0 0.0
2017-Dec-14 11:30N 38°08' E 013°22'0 0.0
2017-Dec-14 11:00N 38°08' E 013°22'0 0.0
2017-Dec-14 10:30N 38°08' E 013°22'0 0.0
2017-Dec-14 10:00N 38°08' E 013°22'0 0.0
2017-Dec-14 09:30N 38°08' E 013°22'0 0.0
2017-Dec-14 09:00N 38°08' E 013°22'0 0.6
2017-Dec-14 08:30N 38°08' E 013°22'0 0.3
2017-Dec-14 08:00N 38°08' E 013°22'0 0.3
2017-Dec-14 07:30N 38°08' E 013°22'510.1
2017-Dec-14 07:00N 38°13' E 013°21'1224.2
2017-Dec-14 06:30N 38°25' E 013°23'1223.9
2017-Dec-14 06:00N 38°36' E 013°22'3 0.3
2017-Dec-13 16:34N 38°34' E 013°19'231.2
2017-Dec-13 16:30N 38°32' E 013°21'1531.4
2017-Dec-13 16:00N 38°17' E 013°27'1020.4
2017-Dec-13 15:30N 38°08' E 013°22'0 0.0
2017-Dec-13 15:00N 38°08' E 013°22'0 0.0
2017-Dec-13 14:30N 38°08' E 013°22'0 0.8
2017-Dec-13 14:00N 38°07' E 013°22'0 0.8
2017-Dec-13 13:30N 38°08' E 013°22'0 0.0
2017-Dec-13 13:00N 38°08' E 013°22'0 0.0
2017-Dec-13 12:30N 38°08' E 013°22'0 0.0
2017-Dec-13 12:00N 38°08' E 013°22'0 0.0
2017-Dec-13 11:30N 38°08' E 013°22'0 0.0
2017-Dec-13 11:00N 38°08' E 013°22'0 0.0
2017-Dec-13 10:30N 38°08' E 013°22'0 0.0
2017-Dec-13 10:00N 38°08' E 013°22'0 0.0
2017-Dec-13 09:30N 38°08' E 013°22'0 0.0
2017-Dec-13 09:00N 38°08' E 013°22'0 0.0
2017-Dec-13 08:30N 38°08' E 013°22'0 0.0
2017-Dec-13 08:00N 38°08' E 013°22'0 0.0
2017-Dec-13 07:30N 38°08' E 013°22'0 0.0
2017-Dec-13 07:00N 38°08' E 013°22'0 0.0
2017-Dec-13 06:30N 38°08' E 013°22'0 0.0
2017-Dec-12 15:14N 38°08' E 013°22'0 0.0
2017-Dec-12 15:00N 38°08' E 013°22'0 0.0
2017-Dec-12 14:30N 38°08' E 013°22'0 0.0
2017-Dec-12 14:00N 38°08' E 013°22'0 0.1
2017-Dec-12 13:30N 38°08' E 013°22'0 0.1
2017-Dec-12 13:00N 38°08' E 013°22'0 0.0
2017-Dec-12 12:30N 38°08' E 013°22'0 0.0
2017-Dec-12 12:00N 38°08' E 013°22'0 0.0
2017-Dec-12 11:30N 38°08' E 013°22'0 0.0
2017-Dec-12 11:00N 38°08' E 013°22'0 0.0
2017-Dec-12 10:30N 38°08' E 013°22'0 0.0
2017-Dec-12 10:00N 38°08' E 013°22'0 0.0
2017-Dec-12 09:30N 38°08' E 013°22'0 0.0
2017-Dec-12 09:00N 38°08' E 013°22'0 0.0
2017-Dec-12 08:30N 38°08' E 013°22'0 0.0
2017-Dec-12 08:00N 38°08' E 013°22'0 0.0
2017-Dec-12 07:30N 38°08' E 013°22'0 0.0
2017-Dec-12 07:00N 38°08' E 013°22'0 0.0
2017-Dec-12 06:30N 38°08' E 013°22'0 0.0
2017-Dec-11 14:53N 38°08' E 013°22'0 0.0
2017-Dec-11 12:07N 38°08' E 013°22'0 0.0
2017-Dec-11 12:00N 38°08' E 013°22'0 0.0
2017-Dec-11 11:30N 38°08' E 013°22'0 0.0
2017-Dec-11 11:00N 38°08' E 013°22'0 0.0
2017-Dec-11 10:30N 38°08' E 013°22'0 0.0
2017-Dec-11 10:00N 38°08' E 013°22'0 0.0
2017-Dec-11 09:30N 38°08' E 013°22'0 0.0
2017-Dec-11 09:00N 38°08' E 013°22'0 0.0
2017-Dec-11 08:30N 38°08' E 013°22'0 0.0
2017-Dec-11 08:00N 38°08' E 013°22'0 0.0
2017-Dec-11 07:30N 38°08' E 013°22'0 0.0
2017-Dec-11 07:00N 38°08' E 013°22'0 0.0
2017-Dec-11 06:30N 38°08' E 013°22'0 0.0
2017-Dec-10 18:49N 38°08' E 013°22'411.4
2017-Dec-10 18:31N 38°11' E 013°24'1428.1
2017-Dec-10 18:01N 38°25' E 013°23'1529.7
2017-Dec-10 17:31N 38°39' E 013°23'6 7.4
2017-Dec-10 16:39N 38°35' E 013°17'531.5
2017-Dec-10 16:30N 38°31' E 013°19'1631.6
2017-Dec-10 16:01N 38°15' E 013°24'815.7
2017-Dec-10 15:30N 38°08' E 013°22'0 0.0
2017-Dec-10 15:00N 38°08' E 013°22'0 0.0
2017-Dec-10 14:30N 38°08' E 013°22'0 0.0
2017-Dec-10 14:00N 38°08' E 013°22'0 0.0
2017-Dec-10 11:14N 38°08' E 013°22'0 0.0
2017-Dec-10 11:00N 38°08' E 013°22'0 0.0
2017-Dec-10 10:30N 38°08' E 013°22'0 0.0
2017-Dec-10 10:00N 38°08' E 013°22'0 0.0
2017-Dec-10 09:30N 38°08' E 013°22'0 0.0
2017-Dec-10 09:00N 38°08' E 013°22'0 0.0
2017-Dec-10 08:30N 38°08' E 013°22'0 0.0
2017-Dec-10 08:00N 38°08' E 013°22'0 0.0
2017-Dec-10 07:30N 38°08' E 013°22'0 0.0
2017-Dec-10 07:00N 38°08' E 013°22'0 0.0
2017-Dec-10 06:30N 38°08' E 013°22'0 0.0
2017-Dec-08 15:21N 38°08' E 013°22'0 1.1
2017-Dec-08 15:00N 38°07' E 013°22'0 0.7
2017-Dec-08 14:30N 38°08' E 013°22'1223.6
2017-Dec-08 14:01N 38°19' E 013°23'1733.1
2017-Dec-08 13:30N 38°35' E 013°16'  
Track history (hours):
 
Tides and Currents Weather Stations Pressure Air Temp Water Temp Dewpoint Dewpoint Depression Visibility Wind Speed Wind Dir Waves Ship Positions

Tiziano

Last reported at 2017-Dec-18 08:21 UTC. Time now 2017-Dec-18 12:49 UTC.
Position N 38°35' E 013°14'.

Length 31 m; draft 3.8 m.

Type: Passenger vessel. MMSI: 247192500.

Date/timePositionNaut miles runAvg speedWind from/ knotsBaromVisibWave heightAir tempDewpointWater temp
2017-Dec-18 08:21N 38°35' E 013°14'1130.8
2017-Dec-18 08:01N 38°25' E 013°17'1530.7
2017-Dec-18 07:31N 38°11' E 013°25'4 8.0
2017-Dec-18 07:00N 38°08' E 013°22'0 0.0
2017-Dec-18 06:30N 38°08' E 013°22'0 0.0
2017-Dec-17 13:32N 38°08' E 013°22'0 0.2
2017-Dec-17 13:30N 38°08' E 013°22'0 0.0
2017-Dec-17 13:00N 38°08' E 013°22'0 0.0
2017-Dec-17 12:30N 38°08' E 013°22'0 0.0
2017-Dec-17 12:00N 38°08' E 013°22'0 0.0
2017-Dec-17 11:30N 38°08' E 013°22'0 0.0
2017-Dec-17 11:00N 38°08' E 013°22'0 0.0
2017-Dec-17 10:30N 38°08' E 013°22'0 0.0
2017-Dec-17 10:00N 38°08' E 013°22'0 0.0
2017-Dec-17 09:30N 38°08' E 013°22'0 0.0
2017-Dec-17 09:00N 38°08' E 013°22'0 0.0
2017-Dec-17 08:30N 38°08' E 013°22'0 0.0
2017-Dec-17 08:00N 38°08' E 013°22'0 0.0
2017-Dec-17 07:30N 38°08' E 013°22'0 0.0
2017-Dec-17 07:00N 38°08' E 013°22'0 0.0
2017-Dec-17 06:30N 38°08' E 013°22'0 0.0
2017-Dec-16 15:52N 38°08' E 013°22'0 1.1
2017-Dec-16 15:30N 38°07' E 013°22'0 0.8
2017-Dec-16 15:00N 38°08' E 013°22'713.8
2017-Dec-16 14:30N 38°14' E 013°23'1223.6
2017-Dec-16 14:01N 38°26' E 013°22'10 1.8
2017-Dec-16 08:11N 38°35' E 013°16'632.1
2017-Dec-16 08:01N 38°30' E 013°18'1631.9
2017-Dec-16 07:31N 38°14' E 013°24'713.7
2017-Dec-16 07:01N 38°08' E 013°22'0 0.0
2017-Dec-16 06:30N 38°08' E 013°22'0 0.0
2017-Dec-15 14:13N 38°08' E 013°22'0 0.0
2017-Dec-15 14:00N 38°08' E 013°22'0 0.0
2017-Dec-15 13:30N 38°08' E 013°22'0 0.0
2017-Dec-15 13:00N 38°08' E 013°22'0 0.0
2017-Dec-15 12:30N 38°08' E 013°22'0 0.0
2017-Dec-15 12:00N 38°08' E 013°22'0 0.0
2017-Dec-15 11:30N 38°08' E 013°22'0 0.0
2017-Dec-15 11:00N 38°08' E 013°22'0 0.0
2017-Dec-15 10:30N 38°08' E 013°22'0 0.0
2017-Dec-15 10:00N 38°08' E 013°22'0 0.0
2017-Dec-15 09:30N 38°08' E 013°22'0 0.0
2017-Dec-15 09:00N 38°08' E 013°22'0 0.0
2017-Dec-15 08:30N 38°08' E 013°22'0 0.0
2017-Dec-15 08:00N 38°08' E 013°22'0 0.0
2017-Dec-15 07:30N 38°08' E 013°22'0 0.0
2017-Dec-15 07:00N 38°08' E 013°22'0 0.0
2017-Dec-15 06:30N 38°08' E 013°22'0 0.0
2017-Dec-15 06:00N 38°08' E 013°22'0 0.0
2017-Dec-14 15:53N 38°08' E 013°22'0 0.0
2017-Dec-14 15:00N 38°08' E 013°22'0 0.0
2017-Dec-14 14:30N 38°08' E 013°22'0 0.0
2017-Dec-14 14:00N 38°08' E 013°22'0 0.0
2017-Dec-14 13:30N 38°08' E 013°22'0 0.0
2017-Dec-14 13:00N 38°08' E 013°22'0 0.0
2017-Dec-14 12:30N 38°08' E 013°22'0 0.0
2017-Dec-14 12:00N 38°08' E 013°22'0 0.0
2017-Dec-14 11:30N 38°08' E 013°22'0 0.0
2017-Dec-14 11:00N 38°08' E 013°22'0 0.0
2017-Dec-14 10:30N 38°08' E 013°22'0 0.0
2017-Dec-14 10:00N 38°08' E 013°22'0 0.0
2017-Dec-14 09:30N 38°08' E 013°22'0 0.0
2017-Dec-14 09:00N 38°08' E 013°22'0 0.6
2017-Dec-14 08:30N 38°08' E 013°22'0 0.3
2017-Dec-14 08:00N 38°08' E 013°22'0 0.3
2017-Dec-14 07:30N 38°08' E 013°22'510.1
2017-Dec-14 07:00N 38°13' E 013°21'1224.2
2017-Dec-14 06:30N 38°25' E 013°23'1223.9
2017-Dec-14 06:00N 38°36' E 013°22'3 0.3
2017-Dec-13 16:34N 38°34' E 013°19'231.2
2017-Dec-13 16:30N 38°32' E 013°21'1531.4
2017-Dec-13 16:00N 38°17' E 013°27'1020.4
2017-Dec-13 15:30N 38°08' E 013°22'0 0.0
2017-Dec-13 15:00N 38°08' E 013°22'0 0.0
2017-Dec-13 14:30N 38°08' E 013°22'0 0.8
2017-Dec-13 14:00N 38°07' E 013°22'0 0.8
2017-Dec-13 13:30N 38°08' E 013°22'0 0.0
2017-Dec-13 13:00N 38°08' E 013°22'0 0.0
2017-Dec-13 12:30N 38°08' E 013°22'0 0.0
2017-Dec-13 12:00N 38°08' E 013°22'0 0.0
2017-Dec-13 11:30N 38°08' E 013°22'0 0.0
2017-Dec-13 11:00N 38°08' E 013°22'0 0.0
2017-Dec-13 10:30N 38°08' E 013°22'0 0.0
2017-Dec-13 10:00N 38°08' E 013°22'0 0.0
2017-Dec-13 09:30N 38°08' E 013°22'0 0.0
2017-Dec-13 09:00N 38°08' E 013°22'0 0.0
2017-Dec-13 08:30N 38°08' E 013°22'0 0.0
2017-Dec-13 08:00N 38°08' E 013°22'0 0.0
2017-Dec-13 07:30N 38°08' E 013°22'0 0.0
2017-Dec-13 07:00N 38°08' E 013°22'0 0.0
2017-Dec-13 06:30N 38°08' E 013°22'0 0.0
2017-Dec-12 15:14N 38°08' E 013°22'0 0.0
2017-Dec-12 15:00N 38°08' E 013°22'0 0.0
2017-Dec-12 14:30N 38°08' E 013°22'0 0.0
2017-Dec-12 14:00N 38°08' E 013°22'0 0.1
2017-Dec-12 13:30N 38°08' E 013°22'0 0.1
2017-Dec-12 13:00N 38°08' E 013°22'0 0.0
2017-Dec-12 12:30N 38°08' E 013°22'0 0.0
2017-Dec-12 12:00N 38°08' E 013°22'0 0.0
2017-Dec-12 11:30N 38°08' E 013°22'0 0.0
2017-Dec-12 11:00N 38°08' E 013°22'0 0.0
2017-Dec-12 10:30N 38°08' E 013°22'0 0.0
2017-Dec-12 10:00N 38°08' E 013°22'0 0.0
2017-Dec-12 09:30N 38°08' E 013°22'0 0.0
2017-Dec-12 09:00N 38°08' E 013°22'0 0.0
2017-Dec-12 08:30N 38°08' E 013°22'0 0.0
2017-Dec-12 08:00N 38°08' E 013°22'0 0.0
2017-Dec-12 07:30N 38°08' E 013°22'0 0.0
2017-Dec-12 07:00N 38°08' E 013°22'0 0.0
2017-Dec-12 06:30N 38°08' E 013°22'0 0.0
2017-Dec-11 14:53N 38°08' E 013°22'0 0.0
2017-Dec-11 12:07N 38°08' E 013°22'0 0.0
2017-Dec-11 12:00N 38°08' E 013°22'0 0.0
2017-Dec-11 11:30N 38°08' E 013°22'0 0.0
2017-Dec-11 11:00N 38°08' E 013°22'0 0.0
2017-Dec-11 10:30N 38°08' E 013°22'0 0.0
2017-Dec-11 10:00N 38°08' E 013°22'0 0.0
2017-Dec-11 09:30N 38°08' E 013°22'0 0.0
2017-Dec-11 09:00N 38°08' E 013°22'0 0.0
2017-Dec-11 08:30N 38°08' E 013°22'0 0.0
2017-Dec-11 08:00N 38°08' E 013°22'0 0.0
2017-Dec-11 07:30N 38°08' E 013°22'0 0.0
2017-Dec-11 07:00N 38°08' E 013°22'0 0.0
2017-Dec-11 06:30N 38°08' E 013°22'0 0.0
2017-Dec-10 18:49N 38°08' E 013°22'411.4
2017-Dec-10 18:31N 38°11' E 013°24'1428.1
2017-Dec-10 18:01N 38°25' E 013°23'1529.7
2017-Dec-10 17:31N 38°39' E 013°23'6 7.4
2017-Dec-10 16:39N 38°35' E 013°17'531.5
2017-Dec-10 16:30N 38°31' E 013°19'1631.6
2017-Dec-10 16:01N 38°15' E 013°24'815.7
2017-Dec-10 15:30N 38°08' E 013°22'0 0.0
2017-Dec-10 15:00N 38°08' E 013°22'0 0.0
2017-Dec-10 14:30N 38°08' E 013°22'0 0.0
2017-Dec-10 14:00N 38°08' E 013°22'0 0.0
2017-Dec-10 11:14N 38°08' E 013°22'0 0.0
2017-Dec-10 11:00N 38°08' E 013°22'0 0.0
2017-Dec-10 10:30N 38°08' E 013°22'0 0.0
2017-Dec-10 10:00N 38°08' E 013°22'0 0.0
2017-Dec-10 09:30N 38°08' E 013°22'0 0.0
2017-Dec-10 09:00N 38°08' E 013°22'0 0.0
2017-Dec-10 08:30N 38°08' E 013°22'0 0.0
2017-Dec-10 08:00N 38°08' E 013°22'0 0.0
2017-Dec-10 07:30N 38°08' E 013°22'0 0.0
2017-Dec-10 07:00N 38°08' E 013°22'0 0.0
2017-Dec-10 06:30N 38°08' E 013°22'0 0.0
2017-Dec-08 15:21N 38°08' E 013°22'0 1.1
2017-Dec-08 15:00N 38°07' E 013°22'0 0.7
2017-Dec-08 14:30N 38°08' E 013°22'1223.6
2017-Dec-08 14:01N 38°19' E 013°23'1733.1
2017-Dec-08 13:30N 38°35' E 013°16'  

Dump ship's entire track history